createdAt,value
2023-04-27T00:04:00.509Z,2.10
2023-04-27T00:09:02.356Z,5.30
2023-04-27T00:14:04.367Z,4.93
2023-04-27T00:19:06.811Z,3.47
2023-04-27T00:24:08.753Z,6.63
2023-04-27T00:29:10.529Z,11.77
2023-04-27T00:34:12.310Z,4.27
2023-04-27T00:39:14.347Z,6.90
2023-04-27T00:44:25.387Z,7.00
2023-04-27T00:49:27.857Z,3.20
2023-04-27T00:54:30.337Z,3.20
2023-04-27T00:59:32.183Z,8.77
2023-04-27T01:04:34.065Z,2.30
2023-04-27T01:09:35.895Z,4.83
2023-04-27T01:14:37.807Z,4.03
2023-04-27T01:19:40.198Z,3.80
2023-04-27T01:24:42.023Z,3.57
2023-04-27T01:29:44.545Z,4.90
2023-04-27T01:34:46.398Z,3.93
2023-04-27T01:39:48.218Z,2.60
2023-04-27T01:44:50.303Z,7.20
2023-04-27T01:49:52.316Z,5.50
2023-04-27T01:54:54.098Z,4.60
2023-04-27T01:59:56.084Z,2.10
2023-04-27T02:04:57.893Z,5.40
2023-04-27T02:09:59.623Z,2.47
2023-04-27T02:15:01.396Z,4.90
2023-04-27T02:20:04.221Z,5.50
2023-04-27T02:25:07.220Z,2.67
2023-04-27T02:30:11.721Z,5.63
2023-04-27T02:35:14.168Z,4.60
2023-04-27T02:40:15.971Z,6.57
2023-04-27T02:45:17.963Z,4.40
2023-04-27T02:50:19.917Z,6.53
2023-04-27T02:55:21.765Z,5.63
2023-04-27T03:00:23.855Z,3.23
2023-04-27T03:05:29.006Z,3.43
2023-04-27T03:10:30.865Z,2.60
2023-04-27T03:15:32.712Z,5.80
2023-04-27T03:20:34.454Z,10.40
2023-04-27T03:25:36.249Z,5.93
2023-04-27T03:30:41.164Z,5.60
2023-04-27T03:35:42.938Z,4.60
2023-04-27T03:40:44.732Z,6.07
2023-04-27T03:45:46.760Z,8.90
2023-04-27T03:50:49.186Z,8.50
2023-04-27T03:55:51.427Z,6.10
2023-04-27T04:00:54.547Z,9.77
2023-04-27T04:05:56.423Z,2.70
2023-04-27T04:10:58.233Z,5.57
2023-04-27T04:16:09.373Z,6.57
2023-04-27T04:21:11.302Z,8.77
2023-04-27T04:26:14.927Z,6.63
2023-04-27T04:31:18.276Z,6.80
2023-04-27T04:36:20.153Z,9.30
2023-04-27T04:41:21.955Z,6.00
2023-04-27T04:46:24.689Z,5.63
2023-04-27T04:51:26.662Z,4.43
2023-04-27T04:56:28.524Z,3.80
2023-04-27T05:01:30.441Z,10.50
2023-04-27T05:06:32.268Z,8.30
2023-04-27T05:11:34.061Z,9.10
2023-04-27T05:16:36.032Z,3.87
2023-04-27T05:21:37.896Z,6.20
2023-04-27T05:26:39.853Z,9.03
2023-04-27T05:31:41.677Z,3.93
2023-04-27T05:36:43.776Z,5.47
2023-04-27T05:41:45.523Z,7.93
2023-04-27T05:46:47.294Z,9.20
2023-04-27T05:51:49.186Z,7.63
2023-04-27T05:56:51.145Z,8.90
2023-04-27T06:01:52.967Z,5.57
2023-04-27T06:06:56.360Z,6.40
2023-04-27T06:12:01.841Z,3.20
2023-04-27T06:17:04.635Z,10.20
2023-04-27T06:22:06.519Z,7.07
2023-04-27T06:27:08.381Z,3.73
2023-04-27T06:32:10.274Z,2.90
2023-04-27T06:37:12.261Z,6.50
2023-04-27T06:42:14.282Z,7.23
2023-04-27T06:47:16.170Z,5.23
2023-04-27T06:52:21.185Z,7.33
2023-04-27T06:57:23.023Z,6.50
2023-04-27T07:02:25.678Z,5.77
2023-04-27T07:07:27.723Z,5.27
2023-04-27T07:12:30.098Z,9.10
2023-04-27T07:17:33.071Z,7.40
2023-04-27T07:22:34.900Z,6.83
2023-04-27T07:27:36.764Z,3.17
2023-04-27T07:32:44.076Z,6.70
2023-04-27T07:37:45.884Z,7.40
2023-04-27T07:42:48.139Z,5.03
2023-04-27T07:47:58.872Z,2.63
2023-04-27T07:53:01.062Z,12.10
2023-04-27T07:58:04.757Z,10.03
2023-04-27T08:03:07.982Z,3.37
2023-04-27T08:08:10.149Z,9.60
2023-04-27T08:13:12.116Z,3.30
2023-04-27T08:18:13.930Z,9.13
2023-04-27T08:23:16.738Z,17.07
2023-04-27T08:28:18.469Z,4.53
2023-04-27T08:33:20.639Z,4.77
2023-04-27T08:38:24.296Z,5.77
2023-04-27T08:43:27.539Z,3.97
2023-04-27T08:48:29.697Z,5.77
2023-04-27T08:53:33.292Z,2.97
2023-04-27T08:58:39.335Z,8.10
2023-04-27T09:03:41.322Z,6.27
2023-04-27T09:08:48.835Z,2.30
2023-04-27T09:13:50.587Z,3.37
2023-04-27T09:18:53.247Z,7.83
2023-04-27T09:23:56.750Z,5.67
2023-04-27T09:28:58.735Z,7.13
2023-04-27T09:34:01.374Z,3.00
2023-04-27T09:39:05.026Z,10.23
2023-04-27T09:44:08.955Z,9.10
2023-04-27T09:49:13.924Z,4.50
2023-04-27T09:54:17.179Z,4.70
2023-04-27T09:59:52.679Z,3.50
2023-04-27T10:05:29.691Z,6.30
2023-04-27T10:10:47.035Z,5.30
2023-04-27T10:15:49.058Z,3.37
2023-04-27T10:20:52.700Z,3.90
2023-04-27T10:25:55.763Z,3.00
2023-04-27T10:30:58.043Z,6.70
2023-04-27T10:36:00.439Z,8.53
2023-04-27T10:41:05.392Z,3.30
2023-04-27T10:46:13.719Z,5.80
2023-04-27T10:51:17.626Z,6.33
2023-04-27T10:56:19.585Z,6.03
2023-04-27T11:01:29.442Z,3.17
2023-04-27T11:06:33.465Z,2.83
2023-04-27T11:11:35.411Z,3.43
2023-04-27T11:16:47.075Z,2.60
2023-04-27T11:21:49.088Z,2.30
2023-04-27T11:26:53.894Z,2.27
2023-04-27T11:31:55.772Z,1.63
2023-04-27T11:42:28.692Z,2.17
2023-04-27T11:47:33.524Z,3.80
2023-04-27T11:52:40.141Z,2.87
2023-04-27T11:57:43.160Z,2.97
2023-04-27T12:02:45.107Z,5.57
2023-04-27T12:07:46.983Z,1.67
2023-04-27T12:12:48.803Z,1.67
2023-04-27T12:17:50.832Z,3.10
2023-04-27T12:22:54.904Z,1.33
2023-04-27T12:27:56.719Z,2.17
2023-04-27T12:33:00.664Z,4.50
2023-04-27T12:38:03.409Z,1.63
2023-04-27T12:43:05.552Z,2.47
2023-04-27T12:48:08.031Z,2.67
2023-04-27T12:53:09.912Z,5.40
2023-04-27T12:58:11.849Z,2.73
2023-04-27T13:03:13.884Z,1.63
2023-04-27T13:08:15.960Z,2.10
2023-04-27T13:13:17.756Z,5.50
2023-04-27T13:18:19.794Z,5.40
2023-04-27T13:23:21.621Z,3.07
2023-04-27T13:28:25.075Z,2.83
2023-04-27T13:33:27.143Z,6.07
2023-04-27T13:38:29.173Z,4.30
2023-04-27T13:43:31.758Z,1.37
2023-04-27T13:48:33.610Z,1.53
2023-04-27T13:53:35.361Z,7.13
2023-04-27T13:58:37.403Z,6.10
2023-04-27T14:08:41.427Z,4.40
2023-04-27T14:13:43.184Z,11.73
2023-04-27T14:18:45.012Z,1.73
2023-04-27T14:23:47.117Z,5.10
2023-04-27T14:28:49.045Z,1.30
2023-04-27T14:33:53.715Z,2.60
2023-04-27T14:38:55.532Z,2.27
2023-04-27T14:43:57.355Z,2.10
2023-04-27T14:48:59.276Z,3.13
2023-04-27T14:54:02.315Z,2.27
2023-04-27T14:59:05.432Z,2.50
2023-04-27T15:04:12.104Z,1.67
2023-04-27T15:09:14.236Z,3.53
2023-04-27T15:14:19.896Z,2.67
2023-04-27T15:19:21.668Z,3.90
2023-04-27T15:24:23.447Z,4.27
2023-04-27T15:29:25.746Z,3.10
2023-04-27T15:34:27.611Z,4.00
2023-04-27T15:39:29.684Z,1.47
2023-04-27T15:44:31.472Z,2.13
2023-04-27T15:49:39.887Z,3.70
2023-04-27T15:54:47.987Z,5.03
2023-04-27T15:59:49.833Z,2.80
2023-04-27T16:04:56.389Z,4.50
2023-04-27T16:09:59.844Z,1.40
2023-04-27T16:15:02.091Z,1.60
2023-04-27T16:20:09.406Z,4.03
2023-04-27T16:25:11.642Z,2.80
2023-04-27T16:30:14.671Z,2.33
2023-04-27T16:35:18.172Z,6.00
2023-04-27T16:40:20.880Z,1.57
2023-04-27T16:45:22.672Z,2.80
2023-04-27T16:50:24.651Z,1.93
2023-04-27T16:55:28.388Z,2.90
2023-04-27T17:00:30.436Z,4.20
2023-04-27T17:05:33.299Z,2.13
2023-04-27T17:10:36.667Z,5.87
2023-04-27T17:15:38.934Z,5.07
2023-04-27T17:20:42.207Z,2.70
2023-04-27T17:25:44.134Z,2.80
2023-04-27T17:30:46.001Z,10.80
2023-04-27T17:35:48.069Z,3.43
2023-04-27T17:40:49.966Z,6.40
2023-04-27T17:45:52.203Z,6.20
2023-04-27T17:50:54.234Z,4.37
2023-04-27T17:55:56.293Z,7.33
2023-04-27T18:00:58.255Z,5.00
2023-04-27T18:06:00.134Z,3.00
2023-04-27T18:11:02.060Z,1.63
2023-04-27T18:16:04.398Z,1.83
2023-04-27T18:21:06.790Z,2.77
2023-04-27T18:26:11.003Z,3.77
2023-04-27T18:31:18.545Z,7.80
2023-04-27T18:36:20.833Z,1.63
2023-04-27T18:41:23.700Z,3.83
2023-04-27T18:46:26.058Z,15.50
2023-04-27T18:51:29.393Z,3.10
2023-04-27T18:56:31.631Z,4.03
2023-04-27T19:01:33.716Z,3.53
2023-04-27T19:06:35.851Z,3.87
2023-04-27T19:11:37.655Z,8.67
2023-04-27T19:16:41.440Z,4.43
2023-04-27T19:21:43.610Z,4.10
2023-04-27T19:26:46.744Z,7.53
2023-04-27T19:31:48.585Z,4.03
2023-04-27T19:36:50.605Z,12.90
2023-04-27T19:41:52.360Z,3.13
2023-04-27T19:46:54.116Z,7.53
2023-04-27T19:51:55.860Z,10.70
2023-04-27T19:56:57.709Z,5.50
2023-04-27T20:01:59.640Z,10.20
2023-04-27T20:07:03.286Z,8.10
2023-04-27T20:12:19.404Z,4.23
2023-04-27T20:17:31.381Z,6.70
2023-04-27T20:22:33.287Z,5.13
2023-04-27T20:27:35.921Z,5.93
2023-04-27T20:32:40.123Z,15.00
2023-04-27T20:37:43.427Z,8.93
2023-04-27T20:42:45.767Z,5.87
2023-04-27T20:47:47.857Z,8.10
2023-04-27T20:52:49.709Z,11.07
2023-04-27T20:57:51.438Z,10.20
2023-04-27T21:02:53.454Z,10.23
2023-04-27T21:07:55.470Z,5.67
2023-04-27T21:12:57.285Z,12.30
2023-04-27T21:18:00.512Z,8.03
2023-04-27T21:23:02.365Z,11.60
2023-04-27T21:28:04.446Z,5.10
2023-04-27T21:33:06.950Z,4.83
2023-04-27T21:38:08.862Z,8.93
2023-04-27T21:43:10.751Z,6.07
2023-04-27T21:48:12.520Z,10.30
2023-04-27T21:53:15.797Z,15.60
2023-04-27T21:58:17.710Z,16.17
2023-04-27T22:03:19.778Z,13.60
2023-04-27T22:08:21.716Z,17.90
2023-04-27T22:13:23.510Z,12.43
2023-04-27T22:18:25.311Z,13.03
2023-04-27T22:23:27.221Z,15.47
2023-04-27T22:28:29.004Z,14.77
2023-04-27T22:33:32.481Z,13.33
2023-04-27T22:38:34.223Z,13.97
2023-04-27T22:43:36.326Z,12.70
2023-04-27T22:48:38.084Z,19.33
2023-04-27T22:53:39.876Z,26.20
2023-04-27T22:58:41.659Z,21.13
2023-04-27T23:03:43.613Z,27.03
2023-04-27T23:08:47.004Z,19.40
2023-04-27T23:13:50.518Z,17.30
2023-04-27T23:18:52.906Z,20.63
2023-04-27T23:23:55.050Z,25.63
2023-04-27T23:28:57.403Z,17.23
2023-04-27T23:33:59.442Z,9.17
2023-04-27T23:39:01.211Z,8.97
2023-04-27T23:44:02.952Z,5.70
2023-04-27T23:49:04.855Z,10.43
2023-04-27T23:54:09.629Z,6.17
2023-04-27T23:59:11.633Z,9.90
